sensor_id;sensor_type;location;lat;lon;timestamp;temperature;humidity
4908;DHT22;64375;51.540;7.364;2023-03-23T00:01:17;17.80;90.60
4908;DHT22;64375;51.540;7.364;2023-03-23T00:03:47;17.80;90.50
4908;DHT22;64375;51.540;7.364;2023-03-23T00:06:18;17.80;90.50
4908;DHT22;64375;51.540;7.364;2023-03-23T00:09:04;17.80;90.60
4908;DHT22;64375;51.540;7.364;2023-03-23T00:11:35;17.80;90.60
4908;DHT22;64375;51.540;7.364;2023-03-23T00:14:12;17.80;90.60
4908;DHT22;64375;51.540;7.364;2023-03-23T00:16:40;17.80;90.50
4908;DHT22;64375;51.540;7.364;2023-03-23T00:19:12;17.80;90.50
4908;DHT22;64375;51.540;7.364;2023-03-23T00:21:40;17.80;90.60
4908;DHT22;64375;51.540;7.364;2023-03-23T00:24:15;17.80;90.50
4908;DHT22;64375;51.540;7.364;2023-03-23T00:26:52;17.80;90.50
4908;DHT22;64375;51.540;7.364;2023-03-23T00:29:21;17.80;90.50
4908;DHT22;64375;51.540;7.364;2023-03-23T00:31:57;17.80;90.60
4908;DHT22;64375;51.540;7.364;2023-03-23T00:34:25;17.80;90.70
4908;DHT22;64375;51.540;7.364;2023-03-23T00:37:03;17.80;90.60
4908;DHT22;64375;51.540;7.364;2023-03-23T00:39:33;17.80;90.50
4908;DHT22;64375;51.540;7.364;2023-03-23T00:42:13;17.80;90.50
4908;DHT22;64375;51.540;7.364;2023-03-23T00:44:46;17.80;90.50
4908;DHT22;64375;51.540;7.364;2023-03-23T00:47:22;17.80;90.50
4908;DHT22;64375;51.540;7.364;2023-03-23T00:49:53;17.80;90.40
4908;DHT22;64375;51.540;7.364;2023-03-23T00:52:21;17.80;90.40
4908;DHT22;64375;51.540;7.364;2023-03-23T00:54:48;17.80;90.50
4908;DHT22;64375;51.540;7.364;2023-03-23T00:57:21;17.80;90.50
4908;DHT22;64375;51.540;7.364;2023-03-23T00:59:49;17.70;90.50
4908;DHT22;64375;51.540;7.364;2023-03-23T01:02:16;17.70;90.50
4908;DHT22;64375;51.540;7.364;2023-03-23T01:04:54;17.70;90.60
4908;DHT22;64375;51.540;7.364;2023-03-23T01:07:22;17.70;90.60
4908;DHT22;64375;51.540;7.364;2023-03-23T01:09:53;17.70;90.80
4908;DHT22;64375;51.540;7.364;2023-03-23T01:12:23;17.70;90.80
4908;DHT22;64375;51.540;7.364;2023-03-23T01:14:50;17.70;90.70
4908;DHT22;64375;51.540;7.364;2023-03-23T01:17:17;17.70;90.70
4908;DHT22;64375;51.540;7.364;2023-03-23T01:19:47;17.70;90.70
4908;DHT22;64375;51.540;7.364;2023-03-23T01:22:15;17.70;90.70
4908;DHT22;64375;51.540;7.364;2023-03-23T01:24:42;17.70;90.70
4908;DHT22;64375;51.540;7.364;2023-03-23T01:27:12;17.70;90.60
4908;DHT22;64375;51.540;7.364;2023-03-23T01:29:42;17.60;90.60
4908;DHT22;64375;51.540;7.364;2023-03-23T01:32:11;17.60;90.60
4908;DHT22;64375;51.540;7.364;2023-03-23T01:34:47;17.60;90.70
4908;DHT22;64375;51.540;7.364;2023-03-23T01:37:15;17.60;90.70
4908;DHT22;64375;51.540;7.364;2023-03-23T01:39:43;17.60;90.80
4908;DHT22;64375;51.540;7.364;2023-03-23T01:42:10;17.50;90.90
4908;DHT22;64375;51.540;7.364;2023-03-23T01:47:46;17.50;90.90
4908;DHT22;64375;51.540;7.364;2023-03-23T01:50:15;17.50;90.90
4908;DHT22;64375;51.540;7.364;2023-03-23T01:52:43;17.50;90.90
4908;DHT22;64375;51.540;7.364;2023-03-23T01:55:13;17.50;90.90
4908;DHT22;64375;51.540;7.364;2023-03-23T01:57:44;17.50;90.90
4908;DHT22;64375;51.540;7.364;2023-03-23T02:00:26;17.50;90.90
4908;DHT22;64375;51.540;7.364;2023-03-23T02:03:02;17.40;90.90
4908;DHT22;64375;51.540;7.364;2023-03-23T02:05:31;17.30;91.30
4908;DHT22;64375;51.540;7.364;2023-03-23T02:08:17;17.00;91.30
4908;DHT22;64375;51.540;7.364;2023-03-23T02:10:44;17.20;91.30
4908;DHT22;64375;51.540;7.364;2023-03-23T02:13:24;17.30;91.10
4908;DHT22;64375;51.540;7.364;2023-03-23T02:16:03;17.30;91.20
4908;DHT22;64375;51.540;7.364;2023-03-23T02:18:49;17.40;91.70
4908;DHT22;64375;51.540;7.364;2023-03-23T02:30:52;17.40;91.10
4908;DHT22;64375;51.540;7.364;2023-03-23T02:33:35;17.40;91.10
4908;DHT22;64375;51.540;7.364;2023-03-23T02:36:09;17.40;91.10
4908;DHT22;64375;51.540;7.364;2023-03-23T02:38:43;17.40;91.00
4908;DHT22;64375;51.540;7.364;2023-03-23T02:41:36;17.40;90.90
4908;DHT22;64375;51.540;7.364;2023-03-23T02:44:23;17.30;91.00
4908;DHT22;64375;51.540;7.364;2023-03-23T02:46:53;17.30;91.00
4908;DHT22;64375;51.540;7.364;2023-03-23T02:49:32;17.30;91.10
4908;DHT22;64375;51.540;7.364;2023-03-23T02:52:07;17.30;91.30
4908;DHT22;64375;51.540;7.364;2023-03-23T02:54:35;17.30;91.20
4908;DHT22;64375;51.540;7.364;2023-03-23T02:57:02;17.30;91.20
4908;DHT22;64375;51.540;7.364;2023-03-23T02:59:36;17.40;91.30
4908;DHT22;64375;51.540;7.364;2023-03-23T03:02:07;17.40;91.30
4908;DHT22;64375;51.540;7.364;2023-03-23T03:04:39;17.30;91.20
4908;DHT22;64375;51.540;7.364;2023-03-23T03:10:39;17.40;91.20
4908;DHT22;64375;51.540;7.364;2023-03-23T03:13:16;17.30;91.20
4908;DHT22;64375;51.540;7.364;2023-03-23T03:15:55;17.30;91.10
4908;DHT22;64375;51.540;7.364;2023-03-23T03:18:33;17.30;91.10
4908;DHT22;64375;51.540;7.364;2023-03-23T03:21:08;17.30;91.10
4908;DHT22;64375;51.540;7.364;2023-03-23T03:23:39;17.40;91.20
4908;DHT22;64375;51.540;7.364;2023-03-23T03:26:12;17.40;91.20
4908;DHT22;64375;51.540;7.364;2023-03-23T03:28:47;17.40;91.20
4908;DHT22;64375;51.540;7.364;2023-03-23T03:31:20;17.30;91.20
4908;DHT22;64375;51.540;7.364;2023-03-23T03:33:48;17.30;91.30
4908;DHT22;64375;51.540;7.364;2023-03-23T03:36:23;17.30;91.20
4908;DHT22;64375;51.540;7.364;2023-03-23T03:38:51;17.30;91.30
4908;DHT22;64375;51.540;7.364;2023-03-23T03:41:19;17.20;91.30
4908;DHT22;64375;51.540;7.364;2023-03-23T03:43:49;17.20;91.30
4908;DHT22;64375;51.540;7.364;2023-03-23T03:46:27;17.20;91.30
4908;DHT22;64375;51.540;7.364;2023-03-23T03:49:04;17.20;91.30
4908;DHT22;64375;51.540;7.364;2023-03-23T03:51:34;17.20;91.40
4908;DHT22;64375;51.540;7.364;2023-03-23T03:54:01;17.20;91.50
4908;DHT22;64375;51.540;7.364;2023-03-23T03:56:31;17.20;91.40
4908;DHT22;64375;51.540;7.364;2023-03-23T03:59:01;17.20;91.40
4908;DHT22;64375;51.540;7.364;2023-03-23T04:01:30;17.20;91.30
4908;DHT22;64375;51.540;7.364;2023-03-23T04:04:00;17.20;91.30
4908;DHT22;64375;51.540;7.364;2023-03-23T04:06:27;17.20;91.30
4908;DHT22;64375;51.540;7.364;2023-03-23T04:09:01;17.30;91.30
4908;DHT22;64375;51.540;7.364;2023-03-23T04:11:33;17.30;91.30
4908;DHT22;64375;51.540;7.364;2023-03-23T04:14:03;17.20;91.30
4908;DHT22;64375;51.540;7.364;2023-03-23T04:16:30;17.20;91.30
4908;DHT22;64375;51.540;7.364;2023-03-23T04:19:00;17.20;91.30
4908;DHT22;64375;51.540;7.364;2023-03-23T04:21:26;17.20;91.40
4908;DHT22;64375;51.540;7.364;2023-03-23T04:24:03;17.10;91.30
4908;DHT22;64375;51.540;7.364;2023-03-23T04:26:30;17.10;91.50
4908;DHT22;64375;51.540;7.364;2023-03-23T04:29:02;17.10;91.60
4908;DHT22;64375;51.540;7.364;2023-03-23T04:31:31;17.20;91.40
4908;DHT22;64375;51.540;7.364;2023-03-23T04:34:00;17.20;91.40
4908;DHT22;64375;51.540;7.364;2023-03-23T04:36:39;17.20;91.30
4908;DHT22;64375;51.540;7.364;2023-03-23T04:39:07;17.20;91.30
4908;DHT22;64375;51.540;7.364;2023-03-23T04:41:36;17.20;91.30
4908;DHT22;64375;51.540;7.364;2023-03-23T04:44:03;17.10;91.30
4908;DHT22;64375;51.540;7.364;2023-03-23T04:46:34;17.10;91.40
4908;DHT22;64375;51.540;7.364;2023-03-23T04:49:04;17.10;91.40
4908;DHT22;64375;51.540;7.364;2023-03-23T04:51:34;17.10;91.50
4908;DHT22;64375;51.540;7.364;2023-03-23T04:54:01;17.00;91.40
4908;DHT22;64375;51.540;7.364;2023-03-23T04:56:29;17.10;91.50
4908;DHT22;64375;51.540;7.364;2023-03-23T04:59:04;17.00;91.50
4908;DHT22;64375;51.540;7.364;2023-03-23T05:01:31;17.10;91.60
4908;DHT22;64375;51.540;7.364;2023-03-23T05:03:59;17.10;91.50
4908;DHT22;64375;51.540;7.364;2023-03-23T05:06:27;17.10;91.40
4908;DHT22;64375;51.540;7.364;2023-03-23T05:09:03;17.10;91.40
4908;DHT22;64375;51.540;7.364;2023-03-23T05:11:37;17.10;91.30
4908;DHT22;64375;51.540;7.364;2023-03-23T05:14:05;17.10;91.30
4908;DHT22;64375;51.540;7.364;2023-03-23T05:16:32;17.10;91.20
4908;DHT22;64375;51.540;7.364;2023-03-23T05:19:05;17.10;91.50
4908;DHT22;64375;51.540;7.364;2023-03-23T05:21:33;17.10;91.40
4908;DHT22;64375;51.540;7.364;2023-03-23T05:24:00;17.10;91.40
4908;DHT22;64375;51.540;7.364;2023-03-23T05:26:29;17.20;91.50
4908;DHT22;64375;51.540;7.364;2023-03-23T05:28:59;17.40;91.40
4908;DHT22;64375;51.540;7.364;2023-03-23T05:31:32;17.40;91.30
4908;DHT22;64375;51.540;7.364;2023-03-23T05:34:05;17.50;91.20
4908;DHT22;64375;51.540;7.364;2023-03-23T05:36:35;17.60;91.20
4908;DHT22;64375;51.540;7.364;2023-03-23T05:39:08;17.70;91.10
4908;DHT22;64375;51.540;7.364;2023-03-23T05:41:35;17.70;91.00
4908;DHT22;64375;51.540;7.364;2023-03-23T05:44:26;17.80;90.80
4908;DHT22;64375;51.540;7.364;2023-03-23T05:46:53;17.80;90.80
4908;DHT22;64375;51.540;7.364;2023-03-23T05:49:20;17.80;90.70
4908;DHT22;64375;51.540;7.364;2023-03-23T05:51:54;17.90;90.70
4908;DHT22;64375;51.540;7.364;2023-03-23T05:54:21;17.90;90.70
4908;DHT22;64375;51.540;7.364;2023-03-23T05:56:51;17.80;90.50
4908;DHT22;64375;51.540;7.364;2023-03-23T05:59:39;17.90;90.60
4908;DHT22;64375;51.540;7.364;2023-03-23T06:02:06;17.90;90.60
4908;DHT22;64375;51.540;7.364;2023-03-23T06:04:38;17.90;90.60
4908;DHT22;64375;51.540;7.364;2023-03-23T06:07:06;17.90;90.50
4908;DHT22;64375;51.540;7.364;2023-03-23T06:09:39;17.90;90.60
4908;DHT22;64375;51.540;7.364;2023-03-23T06:12:07;17.90;90.50
4908;DHT22;64375;51.540;7.364;2023-03-23T06:14:36;17.90;90.50
4908;DHT22;64375;51.540;7.364;2023-03-23T06:17:03;17.90;90.50
4908;DHT22;64375;51.540;7.364;2023-03-23T06:19:37;17.90;90.50
4908;DHT22;64375;51.540;7.364;2023-03-23T06:22:04;18.00;90.40
4908;DHT22;64375;51.540;7.364;2023-03-23T06:24:31;18.10;90.30
4908;DHT22;64375;51.540;7.364;2023-03-23T06:26:59;18.10;90.20
4908;DHT22;64375;51.540;7.364;2023-03-23T06:29:26;18.20;90.20
4908;DHT22;64375;51.540;7.364;2023-03-23T06:31:58;18.20;90.20
4908;DHT22;64375;51.540;7.364;2023-03-23T06:34:27;18.20;90.20
4908;DHT22;64375;51.540;7.364;2023-03-23T06:36:55;18.20;90.10
4908;DHT22;64375;51.540;7.364;2023-03-23T06:39:22;18.30;90.10
4908;DHT22;64375;51.540;7.364;2023-03-23T06:41:49;18.30;90.20
4908;DHT22;64375;51.540;7.364;2023-03-23T06:44:16;18.30;90.10
4908;DHT22;64375;51.540;7.364;2023-03-23T06:46:43;18.30;90.10
4908;DHT22;64375;51.540;7.364;2023-03-23T06:49:14;18.30;90.30
4908;DHT22;64375;51.540;7.364;2023-03-23T06:51:41;18.30;90.20
4908;DHT22;64375;51.540;7.364;2023-03-23T06:54:08;18.30;90.20
4908;DHT22;64375;51.540;7.364;2023-03-23T06:56:35;18.30;90.20
4908;DHT22;64375;51.540;7.364;2023-03-23T06:59:11;18.30;90.20
4908;DHT22;64375;51.540;7.364;2023-03-23T07:01:40;18.10;90.00
4908;DHT22;64375;51.540;7.364;2023-03-23T07:04:11;17.90;90.00
4908;DHT22;64375;51.540;7.364;2023-03-23T07:06:38;18.00;90.10
4908;DHT22;64375;51.540;7.364;2023-03-23T07:09:05;18.00;90.20
4908;DHT22;64375;51.540;7.364;2023-03-23T07:11:32;17.90;89.90
4908;DHT22;64375;51.540;7.364;2023-03-23T07:13:59;17.30;90.00
4908;DHT22;64375;51.540;7.364;2023-03-23T07:16:30;17.30;90.40
4908;DHT22;64375;51.540;7.364;2023-03-23T07:19:00;17.40;90.50
4908;DHT22;64375;51.540;7.364;2023-03-23T07:21:28;17.60;90.50
4908;DHT22;64375;51.540;7.364;2023-03-23T07:23:55;17.80;90.50
4908;DHT22;64375;51.540;7.364;2023-03-23T07:26:25;17.90;90.40
4908;DHT22;64375;51.540;7.364;2023-03-23T07:28:54;17.90;90.40
4908;DHT22;64375;51.540;7.364;2023-03-23T07:31:27;18.00;90.40
4908;DHT22;64375;51.540;7.364;2023-03-23T07:34:02;18.00;90.40
4908;DHT22;64375;51.540;7.364;2023-03-23T07:36:33;17.70;90.00
4908;DHT22;64375;51.540;7.364;2023-03-23T07:39:03;17.80;90.20
4908;DHT22;64375;51.540;7.364;2023-03-23T07:41:33;17.80;90.20
4908;DHT22;64375;51.540;7.364;2023-03-23T07:44:01;17.90;90.10
4908;DHT22;64375;51.540;7.364;2023-03-23T07:46:33;18.00;90.20
4908;DHT22;64375;51.540;7.364;2023-03-23T07:49:01;18.00;90.20
4908;DHT22;64375;51.540;7.364;2023-03-23T07:51:39;18.10;90.20
4908;DHT22;64375;51.540;7.364;2023-03-23T07:54:06;18.10;90.10
4908;DHT22;64375;51.540;7.364;2023-03-23T07:56:33;18.20;90.20
4908;DHT22;64375;51.540;7.364;2023-03-23T07:59:00;18.20;90.00
4908;DHT22;64375;51.540;7.364;2023-03-23T08:01:31;18.30;90.00
4908;DHT22;64375;51.540;7.364;2023-03-23T08:03:58;18.30;90.10
4908;DHT22;64375;51.540;7.364;2023-03-23T08:06:33;18.30;90.20
4908;DHT22;64375;51.540;7.364;2023-03-23T08:09:01;17.80;89.50
4908;DHT22;64375;51.540;7.364;2023-03-23T08:11:28;17.40;89.90
4908;DHT22;64375;51.540;7.364;2023-03-23T08:13:55;17.50;90.20
4908;DHT22;64375;51.540;7.364;2023-03-23T08:16:22;17.70;90.30
4908;DHT22;64375;51.540;7.364;2023-03-23T08:18:49;17.90;90.40
4908;DHT22;64375;51.540;7.364;2023-03-23T08:21:22;18.00;90.30
4908;DHT22;64375;51.540;7.364;2023-03-23T08:23:51;18.10;90.20
4908;DHT22;64375;51.540;7.364;2023-03-23T08:26:18;18.20;90.40
4908;DHT22;64375;51.540;7.364;2023-03-23T08:28:45;18.20;90.50
4908;DHT22;64375;51.540;7.364;2023-03-23T08:31:15;18.30;90.50
4908;DHT22;64375;51.540;7.364;2023-03-23T08:33:43;18.30;90.30
4908;DHT22;64375;51.540;7.364;2023-03-23T08:36:12;18.30;90.20
4908;DHT22;64375;51.540;7.364;2023-03-23T08:38:55;18.30;90.30
4908;DHT22;64375;51.540;7.364;2023-03-23T08:41:24;18.30;90.20
4908;DHT22;64375;51.540;7.364;2023-03-23T08:43:51;18.30;90.40
4908;DHT22;64375;51.540;7.364;2023-03-23T08:46:18;18.40;90.50
4908;DHT22;64375;51.540;7.364;2023-03-23T08:48:48;18.40;90.60
4908;DHT22;64375;51.540;7.364;2023-03-23T08:51:15;18.40;90.20
4908;DHT22;64375;51.540;7.364;2023-03-23T08:53:48;18.30;90.20
4908;DHT22;64375;51.540;7.364;2023-03-23T08:56:19;18.40;90.20
4908;DHT22;64375;51.540;7.364;2023-03-23T08:58:47;18.40;90.20
4908;DHT22;64375;51.540;7.364;2023-03-23T09:01:14;18.40;90.20
4908;DHT22;64375;51.540;7.364;2023-03-23T09:03:49;18.40;90.00
4908;DHT22;64375;51.540;7.364;2023-03-23T09:06:27;18.40;90.40
4908;DHT22;64375;51.540;7.364;2023-03-23T09:08:54;18.40;90.10
4908;DHT22;64375;51.540;7.364;2023-03-23T09:11:22;18.40;90.10
4908;DHT22;64375;51.540;7.364;2023-03-23T09:13:50;18.50;90.00
4908;DHT22;64375;51.540;7.364;2023-03-23T09:16:17;18.50;90.00
4908;DHT22;64375;51.540;7.364;2023-03-23T09:18:47;18.50;90.00
4908;DHT22;64375;51.540;7.364;2023-03-23T09:21:15;18.50;90.00
4908;DHT22;64375;51.540;7.364;2023-03-23T09:23:43;18.50;90.00
4908;DHT22;64375;51.540;7.364;2023-03-23T09:26:11;18.50;90.00
4908;DHT22;64375;51.540;7.364;2023-03-23T09:28:44;18.50;90.00
4908;DHT22;64375;51.540;7.364;2023-03-23T09:31:19;18.50;89.60
4908;DHT22;64375;51.540;7.364;2023-03-23T09:33:54;18.50;89.80
4908;DHT22;64375;51.540;7.364;2023-03-23T09:36:23;18.50;89.80
4908;DHT22;64375;51.540;7.364;2023-03-23T09:38:54;18.50;89.80
4908;DHT22;64375;51.540;7.364;2023-03-23T09:44:45;18.50;89.40
4908;DHT22;64375;51.540;7.364;2023-03-23T09:47:32;18.60;89.80
4908;DHT22;64375;51.540;7.364;2023-03-23T09:50:11;18.60;89.70
4908;DHT22;64375;51.540;7.364;2023-03-23T09:52:42;18.60;89.60
4908;DHT22;64375;51.540;7.364;2023-03-23T09:55:13;18.60;89.70
4908;DHT22;64375;51.540;7.364;2023-03-23T09:57:46;18.60;89.60
4908;DHT22;64375;51.540;7.364;2023-03-23T10:00:16;18.60;89.30
4908;DHT22;64375;51.540;7.364;2023-03-23T10:02:52;18.60;89.50
4908;DHT22;64375;51.540;7.364;2023-03-23T10:05:44;18.60;89.60
4908;DHT22;64375;51.540;7.364;2023-03-23T10:08:13;18.60;89.20
4908;DHT22;64375;51.540;7.364;2023-03-23T10:10:48;18.60;89.10
4908;DHT22;64375;51.540;7.364;2023-03-23T10:13:26;18.60;89.50
4908;DHT22;64375;51.540;7.364;2023-03-23T10:16:03;18.60;89.30
4908;DHT22;64375;51.540;7.364;2023-03-23T10:18:38;18.60;89.10
4908;DHT22;64375;51.540;7.364;2023-03-23T10:21:11;18.50;89.80
4908;DHT22;64375;51.540;7.364;2023-03-23T10:23:49;18.40;90.00
4908;DHT22;64375;51.540;7.364;2023-03-23T10:26:33;18.40;89.80
4908;DHT22;64375;51.540;7.364;2023-03-23T10:29:13;18.40;90.20
4908;DHT22;64375;51.540;7.364;2023-03-23T10:31:47;18.50;90.20
4908;DHT22;64375;51.540;7.364;2023-03-23T10:34:20;18.50;90.10
4908;DHT22;64375;51.540;7.364;2023-03-23T10:36:59;18.60;89.90
4908;DHT22;64375;51.540;7.364;2023-03-23T10:39:46;18.50;89.10
4908;DHT22;64375;51.540;7.364;2023-03-23T10:42:24;18.40;89.70
4908;DHT22;64375;51.540;7.364;2023-03-23T10:44:52;18.40;90.00
4908;DHT22;64375;51.540;7.364;2023-03-23T10:47:19;18.30;89.50
4908;DHT22;64375;51.540;7.364;2023-03-23T10:50:02;18.30;90.30
4908;DHT22;64375;51.540;7.364;2023-03-23T10:52:33;18.30;90.30
4908;DHT22;64375;51.540;7.364;2023-03-23T10:55:04;18.40;90.10
4908;DHT22;64375;51.540;7.364;2023-03-23T10:57:33;18.00;90.20
4908;DHT22;64375;51.540;7.364;2023-03-23T11:00:04;18.10;90.90
4908;DHT22;64375;51.540;7.364;2023-03-23T11:02:37;18.00;90.40
4908;DHT22;64375;51.540;7.364;2023-03-23T11:05:16;18.00;90.50
4908;DHT22;64375;51.540;7.364;2023-03-23T11:07:49;18.00;90.70
4908;DHT22;64375;51.540;7.364;2023-03-23T11:10:22;17.90;91.00
4908;DHT22;64375;51.540;7.364;2023-03-23T11:12:49;18.20;90.70
4908;DHT22;64375;51.540;7.364;2023-03-23T11:15:26;18.30;90.50
4908;DHT22;64375;51.540;7.364;2023-03-23T11:17:59;18.50;90.40
4908;DHT22;64375;51.540;7.364;2023-03-23T11:20:36;18.50;90.00
4908;DHT22;64375;51.540;7.364;2023-03-23T11:23:19;18.50;90.30
4908;DHT22;64375;51.540;7.364;2023-03-23T11:25:55;18.50;90.40
4908;DHT22;64375;51.540;7.364;2023-03-23T11:28:29;18.40;90.30
4908;DHT22;64375;51.540;7.364;2023-03-23T11:31:01;18.30;90.30
4908;DHT22;64375;51.540;7.364;2023-03-23T11:33:52;18.40;90.50
4908;DHT22;64375;51.540;7.364;2023-03-23T11:36:31;18.50;90.00
4908;DHT22;64375;51.540;7.364;2023-03-23T11:39:02;18.30;90.40
4908;DHT22;64375;51.540;7.364;2023-03-23T11:41:33;18.40;90.60
4908;DHT22;64375;51.540;7.364;2023-03-23T11:44:08;18.60;90.40
4908;DHT22;64375;51.540;7.364;2023-03-23T11:46:49;18.70;90.40
4908;DHT22;64375;51.540;7.364;2023-03-23T11:49:32;18.70;90.10
4908;DHT22;64375;51.540;7.364;2023-03-23T11:52:10;18.60;90.40
4908;DHT22;64375;51.540;7.364;2023-03-23T11:54:42;18.60;90.50
4908;DHT22;64375;51.540;7.364;2023-03-23T11:57:13;18.40;90.60
4908;DHT22;64375;51.540;7.364;2023-03-23T11:59:42;18.30;90.20
4908;DHT22;64375;51.540;7.364;2023-03-23T12:02:32;18.30;90.80
4908;DHT22;64375;51.540;7.364;2023-03-23T12:05:37;18.50;90.70
4908;DHT22;64375;51.540;7.364;2023-03-23T12:08:23;18.60;90.60
4908;DHT22;64375;51.540;7.364;2023-03-23T12:10:57;18.60;90.50
4908;DHT22;64375;51.540;7.364;2023-03-23T12:13:42;18.50;90.20
4908;DHT22;64375;51.540;7.364;2023-03-23T12:16:23;18.60;90.60
4908;DHT22;64375;51.540;7.364;2023-03-23T12:19:00;18.70;90.60
4908;DHT22;64375;51.540;7.364;2023-03-23T12:21:46;18.70;90.50
4908;DHT22;64375;51.540;7.364;2023-03-23T12:24:25;18.80;90.50
4908;DHT22;64375;51.540;7.364;2023-03-23T12:27:00;18.80;90.40
4908;DHT22;64375;51.540;7.364;2023-03-23T12:29:56;18.90;90.40
4908;DHT22;64375;51.540;7.364;2023-03-23T12:32:57;18.80;90.30
4908;DHT22;64375;51.540;7.364;2023-03-23T12:35:48;18.90;90.40
4908;DHT22;64375;51.540;7.364;2023-03-23T12:38:49;18.90;90.40
4908;DHT22;64375;51.540;7.364;2023-03-23T12:41:25;18.90;90.40
4908;DHT22;64375;51.540;7.364;2023-03-23T12:43:59;18.90;90.30
4908;DHT22;64375;51.540;7.364;2023-03-23T12:46:48;18.90;90.20
4908;DHT22;64375;51.540;7.364;2023-03-23T12:49:24;18.90;90.20
4908;DHT22;64375;51.540;7.364;2023-03-23T12:51:59;18.90;90.10
4908;DHT22;64375;51.540;7.364;2023-03-23T12:54:31;18.90;90.20
4908;DHT22;64375;51.540;7.364;2023-03-23T12:57:14;18.80;90.30
4908;DHT22;64375;51.540;7.364;2023-03-23T12:59:44;18.90;90.70
4908;DHT22;64375;51.540;7.364;2023-03-23T13:02:19;18.90;90.40
4908;DHT22;64375;51.540;7.364;2023-03-23T13:04:51;18.90;90.30
4908;DHT22;64375;51.540;7.364;2023-03-23T13:07:28;18.90;90.30
4908;DHT22;64375;51.540;7.364;2023-03-23T13:10:12;18.90;90.40
4908;DHT22;64375;51.540;7.364;2023-03-23T13:12:42;18.90;90.70
4908;DHT22;64375;51.540;7.364;2023-03-23T13:15:20;18.90;90.40
4908;DHT22;64375;51.540;7.364;2023-03-23T13:17:52;18.80;90.30
4908;DHT22;64375;51.540;7.364;2023-03-23T13:20:50;18.80;90.50
4908;DHT22;64375;51.540;7.364;2023-03-23T13:23:20;18.90;90.40
4908;DHT22;64375;51.540;7.364;2023-03-23T13:25:54;18.90;90.40
4908;DHT22;64375;51.540;7.364;2023-03-23T13:28:31;18.90;90.30
4908;DHT22;64375;51.540;7.364;2023-03-23T13:31:01;18.90;90.20
4908;DHT22;64375;51.540;7.364;2023-03-23T13:33:34;18.90;90.30
4908;DHT22;64375;51.540;7.364;2023-03-23T13:36:28;18.80;90.30
4908;DHT22;64375;51.540;7.364;2023-03-23T13:38:59;18.90;90.40
4908;DHT22;64375;51.540;7.364;2023-03-23T13:41:26;18.90;90.40
4908;DHT22;64375;51.540;7.364;2023-03-23T13:44:16;18.90;90.30
4908;DHT22;64375;51.540;7.364;2023-03-23T13:46:54;18.90;90.50
4908;DHT22;64375;51.540;7.364;2023-03-23T13:49:22;18.90;90.50
4908;DHT22;64375;51.540;7.364;2023-03-23T13:54:51;18.80;90.60
4908;DHT22;64375;51.540;7.364;2023-03-23T13:57:48;18.80;90.40
4908;DHT22;64375;51.540;7.364;2023-03-23T14:00:47;18.90;90.40
4908;DHT22;64375;51.540;7.364;2023-03-23T14:03:23;18.90;90.40
4908;DHT22;64375;51.540;7.364;2023-03-23T14:06:03;18.90;90.40
4908;DHT22;64375;51.540;7.364;2023-03-23T14:08:45;18.90;90.40
4908;DHT22;64375;51.540;7.364;2023-03-23T14:11:16;18.80;90.40
4908;DHT22;64375;51.540;7.364;2023-03-23T14:14:05;18.80;90.50
4908;DHT22;64375;51.540;7.364;2023-03-23T14:16:37;18.80;90.50
4908;DHT22;64375;51.540;7.364;2023-03-23T14:19:14;18.80;90.50
4908;DHT22;64375;51.540;7.364;2023-03-23T14:21:57;18.80;90.50
4908;DHT22;64375;51.540;7.364;2023-03-23T14:24:26;18.90;90.50
4908;DHT22;64375;51.540;7.364;2023-03-23T14:27:08;18.90;90.50
4908;DHT22;64375;51.540;7.364;2023-03-23T14:29:59;18.90;90.50
4908;DHT22;64375;51.540;7.364;2023-03-23T14:32:47;18.80;90.50
4908;DHT22;64375;51.540;7.364;2023-03-23T14:35:26;18.90;90.50
4908;DHT22;64375;51.540;7.364;2023-03-23T14:38:16;18.80;90.60
4908;DHT22;64375;51.540;7.364;2023-03-23T14:40:44;18.90;90.60
4908;DHT22;64375;51.540;7.364;2023-03-23T14:43:16;18.80;90.60
4908;DHT22;64375;51.540;7.364;2023-03-23T14:45:51;18.80;90.90
4908;DHT22;64375;51.540;7.364;2023-03-23T14:48:20;18.90;90.80
4908;DHT22;64375;51.540;7.364;2023-03-23T14:50:57;18.90;90.90
4908;DHT22;64375;51.540;7.364;2023-03-23T14:53:30;18.90;90.70
4908;DHT22;64375;51.540;7.364;2023-03-23T14:56:03;19.00;90.70
4908;DHT22;64375;51.540;7.364;2023-03-23T14:58:30;18.90;90.70
4908;DHT22;64375;51.540;7.364;2023-03-23T15:01:01;19.00;90.80
4908;DHT22;64375;51.540;7.364;2023-03-23T15:03:35;19.00;90.70
4908;DHT22;64375;51.540;7.364;2023-03-23T15:06:05;19.00;90.70
4908;DHT22;64375;51.540;7.364;2023-03-23T15:08:36;19.00;90.70
4908;DHT22;64375;51.540;7.364;2023-03-23T15:11:07;19.00;90.80
4908;DHT22;64375;51.540;7.364;2023-03-23T15:13:35;19.00;90.80
4908;DHT22;64375;51.540;7.364;2023-03-23T15:16:13;19.00;90.70
4908;DHT22;64375;51.540;7.364;2023-03-23T15:18:49;19.00;90.80
4908;DHT22;64375;51.540;7.364;2023-03-23T15:21:25;19.00;90.80
4908;DHT22;64375;51.540;7.364;2023-03-23T15:24:17;19.00;90.70
4908;DHT22;64375;51.540;7.364;2023-03-23T15:26:48;19.00;90.60
4908;DHT22;64375;51.540;7.364;2023-03-23T15:29:18;19.00;90.60
4908;DHT22;64375;51.540;7.364;2023-03-23T15:31:50;19.00;90.60
4908;DHT22;64375;51.540;7.364;2023-03-23T15:34:39;19.00;90.60
4908;DHT22;64375;51.540;7.364;2023-03-23T15:37:20;19.00;90.60
4908;DHT22;64375;51.540;7.364;2023-03-23T15:39:54;19.00;90.60
4908;DHT22;64375;51.540;7.364;2023-03-23T15:42:26;19.00;90.60
4908;DHT22;64375;51.540;7.364;2023-03-23T15:45:20;19.00;90.60
4908;DHT22;64375;51.540;7.364;2023-03-23T15:47:53;19.00;90.70
4908;DHT22;64375;51.540;7.364;2023-03-23T15:50:34;19.00;90.60
4908;DHT22;64375;51.540;7.364;2023-03-23T15:53:08;19.10;90.60
4908;DHT22;64375;51.540;7.364;2023-03-23T15:55:38;19.10;90.60
4908;DHT22;64375;51.540;7.364;2023-03-23T15:58:10;19.10;90.60
4908;DHT22;64375;51.540;7.364;2023-03-23T16:00:40;19.10;90.60
4908;DHT22;64375;51.540;7.364;2023-03-23T16:03:12;19.10;90.50
4908;DHT22;64375;51.540;7.364;2023-03-23T16:05:54;19.10;90.50
4908;DHT22;64375;51.540;7.364;2023-03-23T16:08:25;19.10;90.40
4908;DHT22;64375;51.540;7.364;2023-03-23T16:10:53;19.10;90.30
4908;DHT22;64375;51.540;7.364;2023-03-23T16:13:29;19.10;90.40
4908;DHT22;64375;51.540;7.364;2023-03-23T16:15:57;19.00;90.30
4908;DHT22;64375;51.540;7.364;2023-03-23T16:18:25;19.00;90.20
4908;DHT22;64375;51.540;7.364;2023-03-23T16:20:55;19.00;90.20
4908;DHT22;64375;51.540;7.364;2023-03-23T16:23:28;18.90;90.30
4908;DHT22;64375;51.540;7.364;2023-03-23T16:26:02;18.90;90.40
4908;DHT22;64375;51.540;7.364;2023-03-23T16:28:30;18.90;90.50
4908;DHT22;64375;51.540;7.364;2023-03-23T16:31:01;19.00;90.60
4908;DHT22;64375;51.540;7.364;2023-03-23T16:33:28;19.00;90.50
4908;DHT22;64375;51.540;7.364;2023-03-23T16:35:58;19.10;90.50
4908;DHT22;64375;51.540;7.364;2023-03-23T16:38:32;18.90;90.20
4908;DHT22;64375;51.540;7.364;2023-03-23T16:41:21;18.80;90.20
4908;DHT22;64375;51.540;7.364;2023-03-23T16:43:48;18.40;90.50
4908;DHT22;64375;51.540;7.364;2023-03-23T16:46:22;18.20;90.70